createdAt,value
2023-10-07T00:03:54.215Z,10.43
2023-10-07T00:08:01.626Z,10.50
2023-10-07T00:12:04.983Z,10.43
2023-10-07T00:16:11.373Z,10.13
2023-10-07T00:20:14.304Z,11.23
2023-10-07T00:24:20.711Z,10.73
2023-10-07T00:28:30.046Z,11.23
2023-10-07T00:32:34.512Z,11.27
2023-10-07T00:36:44.014Z,10.83
2023-10-07T00:40:53.816Z,10.13
2023-10-07T00:44:58.197Z,11.13
2023-10-07T00:49:10.918Z,10.27
2023-10-07T00:53:13.910Z,10.10
2023-10-07T00:57:25.206Z,11.23
2023-10-07T01:01:30.044Z,11.63
2023-10-07T01:05:35.236Z,11.47
2023-10-07T01:09:38.036Z,10.57
2023-10-07T01:13:47.257Z,10.70
2023-10-07T01:17:55.176Z,11.30
2023-10-07T01:22:10.213Z,11.53
2023-10-07T01:26:23.686Z,10.27
2023-10-07T01:30:30.241Z,10.20
2023-10-07T01:34:36.712Z,10.97
2023-10-07T01:38:45.054Z,10.33
2023-10-07T01:42:49.129Z,11.33
2023-10-07T01:46:57.144Z,11.40
2023-10-07T01:51:03.101Z,11.90
2023-10-07T01:55:09.807Z,10.40
2023-10-07T01:59:19.739Z,11.10
2023-10-07T02:03:25.008Z,12.27
2023-10-07T02:07:28.963Z,11.87
2023-10-07T02:11:32.580Z,11.47
2023-10-07T02:15:38.681Z,11.70
2023-10-07T02:19:42.699Z,12.50
2023-10-07T02:23:45.576Z,12.33
2023-10-07T02:27:50.096Z,12.50
2023-10-07T02:31:59.205Z,12.70
2023-10-07T02:36:01.945Z,13.10
2023-10-07T02:40:20.458Z,13.97
2023-10-07T02:44:28.974Z,14.07
2023-10-07T02:48:37.105Z,12.53
2023-10-07T02:52:40.754Z,13.57
2023-10-07T02:56:55.450Z,13.90
2023-10-07T03:01:11.367Z,13.63
2023-10-07T03:05:15.896Z,14.70
2023-10-07T03:09:20.362Z,13.77
2023-10-07T03:13:24.626Z,13.63
2023-10-07T03:17:35.788Z,14.37
2023-10-07T03:21:57.091Z,15.97
2023-10-07T03:26:07.932Z,16.10
2023-10-07T03:30:19.729Z,14.70
2023-10-07T03:34:22.489Z,15.07
2023-10-07T03:38:27.314Z,17.77
2023-10-07T03:42:29.988Z,15.50
2023-10-07T03:46:35.765Z,16.53
2023-10-07T03:50:38.561Z,16.93
2023-10-07T03:54:42.796Z,18.60
2023-10-07T03:58:45.932Z,18.83
2023-10-07T04:02:51.097Z,18.30
2023-10-07T04:06:54.122Z,17.93
2023-10-07T04:10:58.259Z,19.60
2023-10-07T04:15:03.804Z,20.00
2023-10-07T04:19:10.664Z,18.60
2023-10-07T04:23:13.463Z,18.93
2023-10-07T04:27:21.362Z,19.83
2023-10-07T04:31:30.860Z,19.90
2023-10-07T04:35:34.338Z,19.03
2023-10-07T04:39:40.149Z,18.57
2023-10-07T04:43:51.402Z,21.87
2023-10-07T04:47:58.710Z,19.50
2023-10-07T04:52:05.414Z,20.23
2023-10-07T04:56:09.215Z,21.87
2023-10-07T05:00:29.091Z,20.90
2023-10-07T05:04:33.980Z,19.07
2023-10-07T05:08:39.054Z,19.57
2023-10-07T05:12:42.581Z,20.50
2023-10-07T05:16:50.207Z,21.43
2023-10-07T05:20:53.274Z,21.73
2023-10-07T05:25:00.849Z,21.90
2023-10-07T05:29:04.364Z,21.43
2023-10-07T05:33:10.901Z,21.70
2023-10-07T05:37:16.326Z,22.40
2023-10-07T05:41:19.233Z,24.93
2023-10-07T05:45:21.960Z,24.40
2023-10-07T05:49:26.025Z,21.77
2023-10-07T05:53:30.126Z,25.37
2023-10-07T05:57:34.467Z,23.63
2023-10-07T06:01:37.338Z,23.30
2023-10-07T06:05:41.394Z,23.57
2023-10-07T06:09:45.209Z,23.83
2023-10-07T06:13:49.002Z,24.53
2023-10-07T06:17:51.981Z,26.00
2023-10-07T06:21:57.854Z,25.37
2023-10-07T06:26:12.554Z,25.40
2023-10-07T06:30:21.496Z,25.87
2023-10-07T06:34:27.807Z,26.03
2023-10-07T06:38:34.715Z,25.97
2023-10-07T06:42:41.497Z,24.40
2023-10-07T06:46:46.400Z,23.03
2023-10-07T06:50:53.575Z,24.63
2023-10-07T06:55:08.601Z,23.90
2023-10-07T06:59:14.785Z,24.47
2023-10-07T07:03:19.733Z,24.40
2023-10-07T07:07:22.687Z,25.40
2023-10-07T07:11:26.804Z,23.93
2023-10-07T07:15:37.607Z,24.77
2023-10-07T07:19:40.502Z,24.17
2023-10-07T07:23:49.887Z,23.57
2023-10-07T07:27:54.329Z,23.97
2023-10-07T07:31:57.108Z,24.70
2023-10-07T07:35:59.910Z,24.37
2023-10-07T07:40:09.742Z,26.00
2023-10-07T07:44:14.638Z,24.50
2023-10-07T07:48:17.959Z,24.57
2023-10-07T07:52:20.913Z,24.40
2023-10-07T07:56:23.838Z,24.07
2023-10-07T08:00:28.537Z,24.33
2023-10-07T08:04:40.577Z,23.47
2023-10-07T08:08:43.423Z,24.57
2023-10-07T08:12:48.105Z,23.17
2023-10-07T08:16:52.766Z,23.03
2023-10-07T08:20:58.072Z,23.03
2023-10-07T08:25:06.585Z,22.57
2023-10-07T08:29:21.188Z,21.93
2023-10-07T08:33:25.428Z,22.13
2023-10-07T08:37:33.684Z,23.10
2023-10-07T08:41:39.008Z,22.43
2023-10-07T08:45:42.093Z,23.10
2023-10-07T08:49:46.277Z,21.33
2023-10-07T08:53:51.999Z,21.97
2023-10-07T08:57:55.010Z,20.80
2023-10-07T09:02:01.828Z,21.27
2023-10-07T09:06:08.184Z,19.47
2023-10-07T09:10:16.363Z,20.67
2023-10-07T09:14:19.863Z,17.87
2023-10-07T09:18:29.511Z,17.13
2023-10-07T09:22:36.297Z,17.43
2023-10-07T09:26:49.434Z,16.23
2023-10-07T09:30:52.780Z,16.07
2023-10-07T09:34:57.475Z,15.73
2023-10-07T09:39:22.378Z,13.97
2023-10-07T09:43:28.108Z,15.10
2023-10-07T09:47:34.417Z,13.20
2023-10-07T09:51:45.402Z,15.10
2023-10-07T09:56:22.487Z,13.03
2023-10-07T10:00:40.208Z,14.13
2023-10-07T10:05:01.400Z,12.50
2023-10-07T10:09:10.936Z,13.70
2023-10-07T10:13:30.080Z,12.63
2023-10-07T10:17:35.024Z,13.13
2023-10-07T10:21:38.428Z,11.90
2023-10-07T10:25:41.688Z,12.87
2023-10-07T10:29:56.553Z,12.37
2023-10-07T10:34:00.288Z,11.97
2023-10-07T10:38:10.994Z,11.87
2023-10-07T10:42:16.117Z,12.47
2023-10-07T10:46:22.580Z,11.87
2023-10-07T10:50:26.266Z,12.47
2023-10-07T10:54:28.947Z,12.63
2023-10-07T10:58:31.719Z,11.37
2023-10-07T11:02:41.657Z,12.77
2023-10-07T11:06:44.480Z,11.47
2023-10-07T11:10:49.546Z,10.23
2023-10-07T11:15:03.914Z,12.23
2023-10-07T11:19:13.334Z,11.63
2023-10-07T11:23:17.486Z,10.70
2023-10-07T11:27:20.912Z,11.40
2023-10-07T11:31:29.569Z,12.07
2023-10-07T11:35:33.707Z,11.53
2023-10-07T11:39:40.035Z,12.60
2023-10-07T11:43:46.149Z,12.93
2023-10-07T11:47:49.223Z,11.30
2023-10-07T11:51:53.366Z,10.47
2023-10-07T11:55:58.876Z,11.27
2023-10-07T12:00:01.728Z,11.27
2023-10-07T12:04:06.693Z,10.50
2023-10-07T12:08:13.392Z,10.50
2023-10-07T12:12:18.449Z,11.83
2023-10-07T12:16:22.875Z,9.87
2023-10-07T12:20:25.640Z,10.10
2023-10-07T12:24:30.237Z,10.97
2023-10-07T12:28:32.930Z,10.27
2023-10-07T12:32:35.733Z,10.73
2023-10-07T12:36:39.430Z,11.70
2023-10-07T12:40:43.494Z,14.40
2023-10-07T12:44:47.038Z,10.33
2023-10-07T12:48:50.885Z,8.00
2023-10-07T12:52:56.248Z,8.20
2023-10-07T12:57:00.383Z,7.93
2023-10-07T13:01:06.616Z,14.80
2023-10-07T13:05:10.717Z,15.20
2023-10-07T13:09:17.687Z,10.50
2023-10-07T13:13:23.553Z,7.67
2023-10-07T13:17:26.853Z,6.77
2023-10-07T13:21:30.785Z,6.67
2023-10-07T13:25:34.789Z,6.37
2023-10-07T13:29:38.955Z,7.43
2023-10-07T13:33:42.044Z,6.87
2023-10-07T13:37:45.462Z,6.43
2023-10-07T13:41:49.580Z,8.53
2023-10-07T13:45:53.809Z,7.13
2023-10-07T13:49:56.810Z,6.87
2023-10-07T13:54:14.220Z,7.33
2023-10-07T13:58:18.193Z,10.57
2023-10-07T14:02:22.570Z,8.10
2023-10-07T14:06:28.623Z,8.67
2023-10-07T14:10:31.317Z,7.23
2023-10-07T14:14:35.246Z,6.97
2023-10-07T14:18:39.646Z,6.07
2023-10-07T14:22:42.711Z,6.47
2023-10-07T14:26:45.490Z,6.10
2023-10-07T14:30:48.960Z,7.10
2023-10-07T14:34:53.184Z,7.27
2023-10-07T14:38:56.104Z,7.73
2023-10-07T14:42:59.223Z,6.50
2023-10-07T14:47:01.999Z,7.03
2023-10-07T14:51:07.262Z,6.80
2023-10-07T14:55:11.423Z,6.97
2023-10-07T14:59:16.328Z,8.00
2023-10-07T15:03:19.960Z,7.20
2023-10-07T15:07:24.196Z,7.43
2023-10-07T15:11:27.014Z,7.97
2023-10-07T15:15:29.732Z,8.83
2023-10-07T15:19:32.432Z,7.03
2023-10-07T15:23:36.528Z,6.97
2023-10-07T15:27:39.308Z,6.27
2023-10-07T15:31:42.367Z,6.40
2023-10-07T15:35:45.178Z,6.90
2023-10-07T15:39:49.323Z,7.00
2023-10-07T15:43:52.648Z,7.20
2023-10-07T15:47:55.992Z,6.50
2023-10-07T15:51:58.919Z,7.33
2023-10-07T15:56:07.566Z,5.80
2023-10-07T16:00:12.842Z,6.10
2023-10-07T16:04:16.774Z,6.87
2023-10-07T16:08:19.649Z,6.80
2023-10-07T16:12:28.055Z,7.07
2023-10-07T16:16:32.614Z,5.77
2023-10-07T16:20:40.505Z,6.60
2023-10-07T16:24:43.757Z,6.37
2023-10-07T16:28:49.541Z,6.83
2023-10-07T16:32:52.474Z,6.93
2023-10-07T16:36:55.270Z,6.93
2023-10-07T16:40:58.489Z,7.17
2023-10-07T16:45:04.021Z,6.70
2023-10-07T16:49:06.779Z,6.37
2023-10-07T16:53:09.601Z,7.17
2023-10-07T16:57:12.474Z,6.47
2023-10-07T17:01:16.544Z,6.83
2023-10-07T17:05:19.579Z,6.03
2023-10-07T17:09:23.309Z,7.17
2023-10-07T17:13:26.577Z,7.43
2023-10-07T17:17:30.939Z,6.70
2023-10-07T17:21:33.862Z,7.07
2023-10-07T17:25:37.474Z,7.10
2023-10-07T17:29:40.777Z,7.43
2023-10-07T17:33:44.913Z,6.80
2023-10-07T17:37:47.771Z,7.43
2023-10-07T17:41:51.109Z,6.73
2023-10-07T17:45:54.163Z,8.07
2023-10-07T17:49:58.231Z,7.43
2023-10-07T17:54:00.957Z,7.77
2023-10-07T17:58:04.878Z,7.47
2023-10-07T18:02:07.768Z,7.23
2023-10-07T18:06:12.455Z,7.47
2023-10-07T18:10:16.210Z,7.53
2023-10-07T18:14:19.005Z,7.43
2023-10-07T18:18:21.824Z,7.80
2023-10-07T18:22:26.279Z,7.00
2023-10-07T18:26:29.084Z,6.60
2023-10-07T18:30:31.874Z,7.47
2023-10-07T18:34:34.968Z,7.53
2023-10-07T18:38:39.089Z,6.90
2023-10-07T18:42:42.426Z,7.50
2023-10-07T18:46:47.750Z,7.23
2023-10-07T18:50:50.572Z,7.37
2023-10-07T18:54:54.590Z,6.77
2023-10-07T18:58:57.538Z,7.67
2023-10-07T19:03:00.829Z,6.90
2023-10-07T19:07:03.585Z,7.03
2023-10-07T19:11:10.569Z,7.37
2023-10-07T19:15:16.703Z,6.93
2023-10-07T19:19:19.748Z,6.83
2023-10-07T19:23:25.713Z,6.83
2023-10-07T19:27:29.926Z,7.23
2023-10-07T19:31:32.665Z,6.40
2023-10-07T19:35:35.602Z,6.57
2023-10-07T19:39:43.928Z,6.53
2023-10-07T19:43:53.260Z,6.07
2023-10-07T19:47:58.994Z,7.10
2023-10-07T19:52:02.023Z,6.20
2023-10-07T19:56:05.107Z,6.83
2023-10-07T20:00:11.119Z,6.37
2023-10-07T20:04:13.936Z,6.47
2023-10-07T20:08:17.130Z,6.80
2023-10-07T20:12:20.150Z,5.67
2023-10-07T20:16:24.684Z,7.10
2023-10-07T20:20:28.595Z,6.30
2023-10-07T20:24:31.691Z,6.43
2023-10-07T20:28:34.611Z,6.80
2023-10-07T20:32:39.040Z,6.63
2023-10-07T20:36:41.794Z,6.40
2023-10-07T20:40:53.689Z,7.33
2023-10-07T20:44:56.629Z,7.00
2023-10-07T20:49:00.712Z,6.80
2023-10-07T20:53:04.186Z,7.60
2023-10-07T20:57:08.942Z,6.67
2023-10-07T21:01:18.518Z,6.33
2023-10-07T21:05:28.085Z,7.40
2023-10-07T21:09:31.104Z,6.70
2023-10-07T21:13:33.989Z,7.10
2023-10-07T21:17:36.891Z,6.00
2023-10-07T21:21:41.109Z,6.30
2023-10-07T21:25:45.566Z,7.07
2023-10-07T21:29:48.390Z,6.80
2023-10-07T21:33:51.140Z,7.50
2023-10-07T21:37:55.349Z,6.80
2023-10-07T21:41:58.051Z,6.60
2023-10-07T21:46:00.830Z,6.50
2023-10-07T21:50:04.636Z,7.27
2023-10-07T21:54:10.420Z,6.57
2023-10-07T21:58:13.792Z,7.70
2023-10-07T22:02:17.320Z,6.67
2023-10-07T22:06:21.566Z,7.17
2023-10-07T22:10:34.340Z,7.33
2023-10-07T22:14:37.499Z,6.97
2023-10-07T22:18:41.032Z,7.00
2023-10-07T22:22:44.266Z,7.17
2023-10-07T22:26:48.807Z,6.37
2023-10-07T22:30:53.122Z,6.40
2023-10-07T22:35:01.884Z,6.90
2023-10-07T22:39:20.851Z,7.03
2023-10-07T22:43:34.317Z,7.50
2023-10-07T22:47:37.095Z,7.10
2023-10-07T22:51:44.096Z,7.20
2023-10-07T22:55:51.637Z,7.20
2023-10-07T22:59:56.344Z,6.90
2023-10-07T23:04:10.822Z,7.47
2023-10-07T23:08:16.447Z,6.60
2023-10-07T23:12:29.092Z,7.50
2023-10-07T23:16:37.082Z,7.50
2023-10-07T23:20:42.662Z,7.30
2023-10-07T23:24:53.215Z,7.77
2023-10-07T23:29:03.121Z,7.93
2023-10-07T23:33:14.251Z,7.43
2023-10-07T23:37:18.514Z,7.50
2023-10-07T23:41:26.325Z,7.40
2023-10-07T23:45:29.485Z,7.53
2023-10-07T23:49:36.583Z,8.73
2023-10-07T23:53:39.623Z,8.07
2023-10-07T23:57:42.459Z,7.00
